Time;durP1;ratioP1;P1;durP2;ratioP2;P2;SDS_P1;SDS_P2;PMS_P1;PMS_P2;Temp;Humidity;BMP_temperature;BMP_pressure;BME280_temperature;BME280_humidity;BME280_pressure;Samples;Min_cycle;Max_cycle;Signal;HPM_P1;HPM_P2
2023/08/16 00:01:57;;;;;;;;;;;;;;;25.68;48.41;102057.22;5064365;28;20286;-67
2023/08/16 00:04:23;;;;;;;;;;;;;;;25.68;48.49;102052.72;5068337;28;20365;-66
2023/08/16 00:06:49;;;;;;;;;;;;;;;25.66;48.45;102052.00;5064223;28;19916;-67
2023/08/16 00:09:15;;;;;;;;;;;;;;;25.69;48.41;102053.53;5061065;28;19973;-66
2023/08/16 00:11:41;;;;;;;;;;;;;;;25.62;48.42;102053.41;5073255;28;19923;-66
2023/08/16 00:14:06;;;;;;;;;;;;;;;25.66;48.12;102049.34;5059492;28;19925;-65
2023/08/16 00:16:31;;;;;;;;;;;;;;;25.67;48.31;102051.00;5073068;28;19969;-66
2023/08/16 00:18:57;;;;;;;;;;;;;;;25.66;48.14;102052.00;5060287;28;20665;-67
2023/08/16 00:21:22;;;;;;;;;;;;;;;25.68;48.01;102055.38;5068235;28;19931;-66
2023/08/16 00:23:47;;;;;;;;;;;;;;;25.66;48.21;102045.84;5068255;28;20401;-66
2023/08/16 00:26:13;;;;;;;;;;;;;;;25.64;48.07;102046.03;5074891;28;19920;-66
2023/08/16 00:28:38;;;;;;;;;;;;;;;25.64;48.17;102047.88;5065838;28;19919;-66
2023/08/16 00:31:04;;;;;;;;;;;;;;;25.65;48.44;102047.69;5066911;28;20029;-66
2023/08/16 00:33:30;;;;;;;;;;;;;;;25.65;48.32;102049.53;5073033;28;20366;-68
2023/08/16 00:35:55;;;;;;;;;;;;;;;25.61;48.41;102054.44;5060955;28;19980;-68
2023/08/16 00:38:21;;;;;;;;;;;;;;;25.63;48.02;102049.72;5071787;28;19920;-68
2023/08/16 00:40:49;;;;;;;;;;;;;;;25.65;48.00;102049.53;5068814;28;20473;-68
2023/08/16 00:43:15;;;;;;;;;;;;;;;25.63;47.90;102056.91;5066852;28;19937;-69
2023/08/16 00:45:41;;;;;;;;;;;;;;;25.61;47.97;102062.44;5067013;28;19916;-68
2023/08/16 00:48:07;;;;;;;;;;;;;;;25.65;48.23;102058.38;5072200;28;19972;-68
2023/08/16 00:50:32;;;;;;;;;;;;;;;25.64;48.01;102058.56;5104603;27;20366;-68
2023/08/16 00:52:58;;;;;;;;;;;;;;;25.61;48.24;102065.94;5066504;28;20443;-69
2023/08/16 00:55:23;;;;;;;;;;;;;;;25.62;48.26;102058.75;5071238;28;19927;-67
2023/08/16 00:57:49;;;;;;;;;;;;;;;25.61;48.19;102065.94;5073469;28;19926;-68
2023/08/16 01:00:14;;;;;;;;;;;;;;;25.58;48.01;102062.81;5061697;28;20662;-68
2023/08/16 01:02:39;;;;;;;;;;;;;;;25.61;48.21;102057.09;5092101;27;19996;-68
2023/08/16 01:05:08;;;;;;;;;;;;;;;25.61;47.93;102057.09;5067195;28;20370;-68
2023/08/16 01:07:33;;;;;;;;;;;;;;;25.60;48.34;102061.59;5067365;28;19999;-68
2023/08/16 01:09:58;;;;;;;;;;;;;;;25.59;48.19;102057.28;5066435;28;20015;-68
2023/08/16 01:12:39;;;;;;;;;;;;;;;25.60;48.15;102063.44;5070290;28;19963;-68
2023/08/16 01:15:05;;;;;;;;;;;;;;;25.59;48.14;102059.13;5069190;28;20016;-68
2023/08/16 01:17:30;;;;;;;;;;;;;;;25.59;48.20;102059.13;5065842;28;20686;-68
2023/08/16 01:19:57;;;;;;;;;;;;;;;25.55;48.29;102065.88;5069122;28;19950;-69
2023/08/16 01:22:22;;;;;;;;;;;;;;;25.57;48.35;102066.50;5057274;28;20359;-68
2023/08/16 01:24:59;;;;;;;;;;;;;;;25.59;48.06;102075.13;5062803;28;19923;-68
2023/08/16 01:27:25;;;;;;;;;;;;;;;25.56;48.14;102075.50;5064652;28;19927;-68
2023/08/16 01:29:53;;;;;;;;;;;;;;;25.56;47.92;102076.34;5077263;28;19916;-69
2023/08/16 01:32:20;;;;;;;;;;;;;;;25.59;48.04;102067.13;5052677;28;19930;-68
2023/08/16 01:34:45;;;;;;;;;;;;;;;25.56;48.14;102076.34;5071187;28;19916;-68
2023/08/16 01:37:11;;;;;;;;;;;;;;;25.54;47.96;102073.03;5057651;28;19921;-68
2023/08/16 01:39:38;;;;;;;;;;;;;;;25.55;48.28;102079.19;5081052;27;19975;-68
2023/08/16 01:42:04;;;;;;;;;;;;;;;25.55;47.98;102079.19;5074397;28;19919;-68
2023/08/16 01:44:31;;;;;;;;;;;;;;;25.57;47.85;102088.66;5091490;27;20303;-68
2023/08/16 01:46:57;;;;;;;;;;;;;;;25.57;48.17;102085.16;5074311;28;19923;-68
2023/08/16 01:49:24;;;;;;;;;;;;;;;25.53;48.16;102078.56;5063233;28;20561;-68
2023/08/16 01:51:51;;;;;;;;;;;;;;;25.52;48.15;102083.06;5072863;28;19956;-68
2023/08/16 01:54:17;;;;;;;;;;;;;;;25.52;47.90;102083.06;5111996;27;19931;-68
2023/08/16 01:56:43;;;;;;;;;;;;;;;25.50;48.34;102084.28;5062153;28;19943;-68
2023/08/16 01:59:09;;;;;;;;;;;;;;;25.51;48.17;102081.41;5101094;27;20328;-68
2023/08/16 02:01:34;;;;;;;;;;;;;;;25.51;48.17;102091.25;5061086;28;19970;-68
2023/08/16 02:04:00;;;;;;;;;;;;;;;25.52;47.92;102091.06;5074418;28;19965;-68
2023/08/16 02:06:25;;;;;;;;;;;;;;;25.52;47.89;102090.25;5073660;28;19927;-68
2023/08/16 02:08:52;;;;;;;;;;;;;;;25.48;47.95;102089.78;5090173;27;19931;-68
2023/08/16 02:11:19;;;;;;;;;;;;;;;25.51;47.84;102093.94;5095153;27;19913;-68
2023/08/16 02:13:44;;;;;;;;;;;;;;;25.52;48.15;102092.91;5099280;27;19963;-68
2023/08/16 02:16:10;;;;;;;;;;;;;;;25.51;47.79;102088.59;5063565;28;19971;-67
2023/08/16 02:18:35;;;;;;;;;;;;;;;25.51;48.05;102086.75;5060005;28;20004;-69
2023/08/16 02:21:01;;;;;;;;;;;;;;;25.50;48.05;102089.63;5070922;28;19986;-68
2023/08/16 02:23:27;;;;;;;;;;;;;;;25.52;47.86;102090.25;5097436;27;19928;-68
2023/08/16 02:25:52;;;;;;;;;;;;;;;25.50;48.09;102093.09;5067766;28;20018;-68
2023/08/16 02:28:18;;;;;;;;;;;;;;;25.49;47.84;102088.75;5056036;28;19948;-68
2023/08/16 02:30:43;;;;;;;;;;;;;;;25.49;48.14;102093.25;5094997;27;19921;-68
2023/08/16 02:33:08;;;;;;;;;;;;;;;25.47;47.79;102092.63;5060633;28;19920;-68
2023/08/16 02:35:34;;;;;;;;;;;;;;;25.47;48.21;102090.78;5071615;28;20160;-69
2023/08/16 02:37:59;;;;;;;;;;;;;;;25.45;48.07;102094.66;5074823;28;19927;-68
2023/08/16 02:40:24;;;;;;;;;;;;;;;25.49;47.74;102087.94;5066978;28;19927;-68
2023/08/16 02:42:50;;;;;;;;;;;;;;;25.45;47.72;102087.47;5068512;28;21883;-69
2023/08/16 02:45:16;;;;;;;;;;;;;;;25.47;47.73;102087.28;5089102;27;19925;-68
2023/08/16 02:47:42;;;;;;;;;;;;;;;25.46;48.00;102093.63;5062457;28;19917;-68
2023/08/16 02:50:07;;;;;;;;;;;;;;;25.47;47.70;102096.13;5063364;28;19928;-69
2023/08/16 02:52:33;;;;;;;;;;;;;;;25.46;47.90;102096.31;5077800;28;19927;-68
2023/08/16 02:54:58;;;;;;;;;;;;;;;25.45;48.03;102087.47;5056677;28;19934;-68
2023/08/16 02:57:25;;;;;;;;;;;;;;;25.44;47.91;102088.50;5073521;28;19952;-69
2023/08/16 02:59:51;;;;;;;;;;;;;;;25.42;48.03;102093.19;5062043;28;20006;-68
2023/08/16 03:02:17;;;;;;;;;;;;;;;25.43;47.81;102092.19;5072422;28;20008;-68
2023/08/16 03:04:42;;;;;;;;;;;;;;;25.41;48.08;102090.72;5070080;28;19982;-68
2023/08/16 03:07:08;;;;;;;;;;;;;;;25.43;47.64;102086.84;5060457;28;19920;-68
2023/08/16 03:09:34;;;;;;;;;;;;;;;25.42;48.07;102087.03;5066628;28;19916;-68
2023/08/16 03:12:00;;;;;;;;;;;;;;;25.41;47.88;102088.06;5062813;28;19917;-68
2023/08/16 03:14:25;;;;;;;;;;;;;;;25.43;47.94;102086.03;5067330;28;19920;-69
2023/08/16 03:16:50;;;;;;;;;;;;;;;25.41;47.98;102090.72;5070631;28;20294;-68
2023/08/16 03:19:16;;;;;;;;;;;;;;;25.40;47.74;102095.22;5093356;27;19933;-68
2023/08/16 03:21:43;;;;;;;;;;;;;;;25.42;47.66;102097.69;5064712;28;19916;-67
2023/08/16 03:24:10;;;;;;;;;;;;;;;25.42;47.81;102100.38;5095395;27;19920;-68
2023/08/16 03:26:36;;;;;;;;;;;;;;;25.41;47.74;102104.06;5064762;28;19927;-69
2023/08/16 03:29:03;;;;;;;;;;;;;;;25.40;47.84;102107.72;5058780;28;19921;-69
2023/08/16 03:31:30;;;;;;;;;;;;;;;25.38;47.71;102104.44;5054222;28;19939;-68
2023/08/16 03:33:56;;;;;;;;;;;;;;;25.38;47.78;102097.25;5066716;28;20563;-68
2023/08/16 03:36:22;;;;;;;;;;;;;;;25.37;47.75;102106.25;5071707;28;20310;-68
2023/08/16 03:38:47;;;;;;;;;;;;;;;25.39;47.71;102111.41;5063461;28;19916;-68
2023/08/16 03:41:13;;;;;;;;;;;;;;;25.37;47.89;102111.59;5064323;28;19920;-68
2023/08/16 03:43:38;;;;;;;;;;;;;;;25.40;47.70;102115.72;5054732;28;20323;-68
2023/08/16 03:46:04;;;;;;;;;;;;;;;25.40;47.85;102113.06;5064802;28;20035;-68
2023/08/16 03:48:29;;;;;;;;;;;;;;;25.38;47.99;102102.59;5070111;28;19922;-68
2023/08/16 03:50:55;;;;;;;;;;;;;;;25.38;47.72;102107.91;5075484;28;20642;-68
2023/08/16 03:53:20;;;;;;;;;;;;;;;25.33;47.94;102105.00;5063979;28;20480;-69
2023/08/16 03:55:45;;;;;;;;;;;;;;;25.38;47.50;102115.91;5069459;28;19960;-68
2023/08/16 03:58:11;;;;;;;;;;;;;;;25.34;47.88;102114.66;5032925;28;19925;-68
2023/08/16 04:00:36;;;;;;;;;;;;;;;25.35;47.85;102113.63;5025828;28;19925;-68
2023/08/16 04:03:04;;;;;;;;;;;;;;;25.35;47.62;102113.63;5024113;28;19966;-68
2023/08/16 04:05:29;;;;;;;;;;;;;;;25.32;47.65;102114.00;5033662;28;19975;-68
2023/08/16 04:07:54;;;;;;;;;;;;;;;25.34;47.91;102111.16;5028149;28;20351;-68
2023/08/16 04:10:20;;;;;;;;;;;;;;;25.34;47.64;102111.97;5032023;28;20015;-68
2023/08/16 04:12:45;;;;;;;;;;;;;;;25.33;47.78;102122.84;5017356;28;19925;-67
2023/08/16 04:15:10;;;;;;;;;;;;;;;25.32;47.94;102132.66;5032277;28;19921;-68
2023/08/16 04:17:36;;;;;;;;;;;;;;;25.34;47.86;102130.63;5026253;28;22003;-69
2023/08/16 04:20:03;;;;;;;;;;;;;;;25.30;47.81;102135.50;5019765;28;20086;-68
2023/08/16 04:22:29;;;;;;;;;;;;;;;25.32;47.74;102131.84;5019819;28;19928;-69
2023/08/16 04:24:54;;;;;;;;;;;;;;;25.32;47.86;102132.66;5019045;28;20023;-68
2023/08/16 04:27:20;;;;;;;;;;;;;;;25.30;47.92;102134.66;5022999;28;19932;-68
2023/08/16 04:29:46;;;;;;;;;;;;;;;25.29;47.59;102133.84;5025657;28;19925;-68
2023/08/16 04:32:11;;;;;;;;;;;;;;;25.30;47.87;102137.31;5014777;28;20422;-69
2023/08/16 04:34:37;;;;;;;;;;;;;;;25.26;47.92;102130.72;5025133;28;20038;-68
2023/08/16 04:37:02;;;;;;;;;;;;;;;25.22;48.09;102132.09;5037188;28;20551;-68
2023/08/16 04:39:28;;;;;;;;;;;;;;;25.19;47.93;102140.47;5014509;28;19928;-68
2023/08/16 04:41:53;;;;;;;;;;;;;;;25.19;47.90;102135.16;5015127;28;19960;-69
2023/08/16 04:44:19;;;;;;;;;;;;;;;25.19;47.71;102132.47;5019480;28;19921;-69
2023/08/16 04:46:44;;;;;;;;;;;;;;;25.18;47.85;102137.00;5047826;28;19956;-68
2023/08/16 04:49:09;;;;;;;;;;;;;;;25.17;48.02;102139.84;5026347;28;19971;-69
2023/08/16 04:51:35;;;;;;;;;;;;;;;25.13;48.05;102143.84;5025416;28;20355;-68
2023/08/16 04:54:02;;;;;;;;;;;;;;;25.11;48.11;102149.38;5022907;28;19994;-68
2023/08/16 04:56:28;;;;;;;;;;;;;;;25.17;48.21;102154.00;5036811;28;19921;-68
2023/08/16 04:58:55;;;;;;;;;;;;;;;25.17;47.91;102164.66;5100740;28;19923;-68
2023/08/16 05:01:22;;;;;;;;;;;;;;;25.15;48.03;102166.69;5059548;28;19935;-68
2023/08/16 05:03:52;;;;;;;;;;;;;;;25.15;47.96;102155.19;5059694;28;20374;-68
2023/08/16 05:06:18;;;;;;;;;;;;;;;25.17;48.03;102169.16;5056372;28;19927;-68
2023/08/16 05:08:44;;;;;;;;;;;;;;;25.13;48.10;102171.34;5091746;27;20003;-68
2023/08/16 05:11:09;;;;;;;;;;;;;;;25.17;48.10;102171.81;5055745;28;20375;-68
2023/08/16 05:13:35;;;;;;;;;;;;;;;25.17;47.95;102171.81;5062026;28;20034;-69
2023/08/16 05:16:00;;;;;;;;;;;;;;;25.16;47.83;102183.50;5062899;28;19927;-68
2023/08/16 05:18:26;;;;;;;;;;;;;;;25.15;48.14;102184.50;5068917;28;19923;-68
2023/08/16 05:20:54;;;;;;;;;;;;;;;25.18;47.95;102173.47;5062764;28;19935;-68
2023/08/16 05:23:20;;;;;;;;;;;;;;;25.05;47.71;102157.28;5064289;28;19925;-68
2023/08/16 05:25:45;;;;;;;;;;;;;;;25.14;47.89;102183.69;5066242;28;19962;-68
2023/08/16 05:28:11;;;;;;;;;;;;;;;25.17;47.84;102175.31;5070864;28;19927;-68
2023/08/16 05:30:36;;;;;;;;;;;;;;;25.13;48.04;102173.19;5060719;28;20420;-69
2023/08/16 05:33:01;;;;;;;;;;;;;;;25.15;47.99;102173.84;5065166;28;19920;-68
2023/08/16 05:35:27;;;;;;;;;;;;;;;25.14;48.00;102172.19;5059802;28;20216;-68
2023/08/16 05:37:53;;;;;;;;;;;;;;;25.12;47.92;102183.00;5069345;28;19916;-69
2023/08/16 05:40:19;;;;;;;;;;;;;;;25.17;47.89;102177.16;5071746;28;20020;-68
2023/08/16 05:42:44;;;;;;;;;;;;;;;25.14;47.89;102181.03;5057314;28;20035;-67
2023/08/16 05:45:09;;;;;;;;;;;;;;;25.18;47.99;102178.81;5087794;27;19922;-68
2023/08/16 05:47:35;;;;;;;;;;;;;;;25.16;47.79;102191.50;5074420;28;19920;-68
2023/08/16 05:50:00;;;;;;;;;;;;;;;25.14;47.96;102194.34;5070269;28;19926;-68
2023/08/16 05:52:26;;;;;;;;;;;;;;;25.15;47.97;102196.00;5076949;28;19923;-69
2023/08/16 05:54:51;;;;;;;;;;;;;;;25.14;47.94;102196.19;5062103;28;19959;-68
2023/08/16 05:57:16;;;;;;;;;;;;;;;25.14;48.11;102194.34;5065270;28;21052;-68
2023/08/16 05:59:42;;;;;;;;;;;;;;;25.14;47.83;102196.19;5058054;28;19964;-69
2023/08/16 06:02:07;;;;;;;;;;;;;;;25.17;47.89;102196.66;5070376;28;19965;-68
2023/08/16 06:04:36;;;;;;;;;;;;;;;25.17;47.93;102198.47;5073756;28;20492;-69
2023/08/16 06:07:02;;;;;;;;;;;;;;;25.18;48.09;102203.63;5071221;28;20057;-68
2023/08/16 06:09:27;;;;;;;;;;;;;;;25.16;47.78;102195.00;5067168;28;21087;-69
2023/08/16 06:11:53;;;;;;;;;;;;;;;25.16;47.97;102200.31;5072617;28;19924;-69
2023/08/16 06:14:18;;;;;;;;;;;;;;;25.16;47.89;102202.16;5068053;28;19925;-68
2023/08/16 06:16:44;;;;;;;;;;;;;;;25.16;48.01;102215.50;5074585;28;19942;-68
2023/08/16 06:19:10;;;;;;;;;;;;;;;25.18;47.98;102208.13;5068072;28;19932;-69
2023/08/16 06:21:36;;;;;;;;;;;;;;;25.16;47.89;102213.66;5065545;28;20366;-68
2023/08/16 06:24:02;;;;;;;;;;;;;;;25.13;47.99;102214.00;5067211;28;19921;-68
2023/08/16 06:26:27;;;;;;;;;;;;;;;25.17;47.87;102217.97;5065776;28;20408;-68
2023/08/16 06:28:52;;;;;;;;;;;;;;;25.13;48.16;102218.50;5064404;28;19946;-67
2023/08/16 06:31:18;;;;;;;;;;;;;;;25.14;48.26;102223.66;5060206;28;19924;-68
2023/08/16 06:33:43;;;;;;;;;;;;;;;25.09;48.03;102214.53;5062154;28;19923;-68
2023/08/16 06:36:09;;;;;;;;;;;;;;;25.08;48.26;102229.69;5060330;28;19920;-69
2023/08/16 06:38:35;;;;;;;;;;;;;;;25.14;48.08;102230.84;5066181;28;19929;-68
2023/08/16 06:41:00;;;;;;;;;;;;;;;25.14;48.15;102225.50;5057996;28;19919;-69
2023/08/16 06:43:25;;;;;;;;;;;;;;;25.15;48.28;102225.31;5062080;28;20322;-69
2023/08/16 06:45:51;;;;;;;;;;;;;;;25.16;48.22;102226.16;5061754;28;20452;-68
2023/08/16 06:48:16;;;;;;;;;;;;;;;25.13;48.13;102226.47;5069798;28;19944;-69
2023/08/16 06:50:42;;;;;;;;;;;;;;;25.12;48.30;102231.00;5065668;28;19936;-67
2023/08/16 06:53:08;;;;;;;;;;;;;;;24.99;48.05;102212.13;5068225;28;19927;-68
2023/08/16 06:55:35;;;;;;;;;;;;;;;25.12;48.42;102236.31;5067886;28;19924;-68
2023/08/16 06:58:01;;;;;;;;;;;;;;;25.16;48.10;102234.16;5062378;28;20008;-68
2023/08/16 07:00:26;;;;;;;;;;;;;;;25.16;48.28;102234.16;5066980;28;20378;-68
2023/08/16 07:02:52;;;;;;;;;;;;;;;25.18;48.20;102245.44;5054162;28;19927;-68
2023/08/16 07:05:17;;;;;;;;;;;;;;;25.18;48.35;102251.63;5071211;28;20492;-68
2023/08/16 07:07:42;;;;;;;;;;;;;;;25.17;48.31;102252.63;5062614;28;19927;-68
2023/08/16 07:10:08;;;;;;;;;;;;;;;25.17;48.17;102247.28;5059277;28;19924;-68
2023/08/16 07:12:34;;;;;;;;;;;;;;;25.18;48.13;102251.63;5051780;28;20446;-67
2023/08/16 07:15:00;;;;;;;;;;;;;;;25.17;48.13;102241.97;5057611;28;19973;-68
2023/08/16 07:17:25;;;;;;;;;;;;;;;25.14;48.27;102253.00;5056953;28;19912;-68
2023/08/16 07:19:52;;;;;;;;;;;;;;;25.14;48.41;102250.31;5052452;28;19925;-68
2023/08/16 07:22:20;;;;;;;;;;;;;;;25.19;48.23;102247.94;5051717;28;19967;-68
2023/08/16 07:24:45;;;;;;;;;;;;;;;25.18;48.23;102254.28;5055160;28;19917;-68
2023/08/16 07:27:11;;;;;;;;;;;;;;;25.19;48.24;102249.78;5051035;28;19920;-70
2023/08/16 07:29:36;;;;;;;;;;;;;;;25.16;48.26;102248.31;5054914;28;20010;-68
2023/08/16 07:32:01;;;;;;;;;;;;;;;25.12;48.64;102256.81;5052974;28;19920;-70
2023/08/16 07:34:27;;;;;;;;;;;;;;;25.19;48.16;102258.59;5065040;28;19924;-70
2023/08/16 07:36:53;;;;;;;;;;;;;;;25.23;48.44;102259.88;5060219;28;19928;-70
2023/08/16 07:39:18;;;;;;;;;;;;;;;25.22;48.41;102258.22;5054792;28;19920;-71
2023/08/16 07:41:44;;;;;;;;;;;;;;;25.21;48.53;102255.75;5051729;28;19920;-68
2023/08/16 07:44:10;;;;;;;;;;;;;;;25.15;48.73;102265.31;5058033;28;19963;-68
2023/08/16 07:46:35;;;;;;;;;;;;;;;25.22;48.71;102266.22;5050732;28;19939;-68
2023/08/16 07:49:01;;;;;;;;;;;;;;;25.28;48.42;102268.16;5054689;28;19924;-68
2023/08/16 07:51:27;;;;;;;;;;;;;;;25.25;48.55;102270.38;5057222;28;19921;-66
2023/08/16 07:53:52;;;;;;;;;;;;;;;25.24;48.59;102276.72;5057201;28;19921;-67
2023/08/16 07:56:18;;;;;;;;;;;;;;;25.27;48.62;102276.34;5053424;28;19920;-69
2023/08/16 07:58:43;;;;;;;;;;;;;;;25.25;48.42;102281.84;5055473;28;19999;-67
2023/08/16 08:01:09;;;;;;;;;;;;;;;25.26;48.50;102283.50;5058299;28;20027;-67
2023/08/16 08:03:36;;;;;;;;;;;;;;;25.26;48.85;102280.84;5053680;28;19921;-67
2023/08/16 08:06:02;;;;;;;;;;;;;;;25.31;48.43;102280.28;5060240;28;19917;-67
2023/08/16 08:08:27;;;;;;;;;;;;;;;25.16;48.79;102264.28;5052805;28;19931;-67
2023/08/16 08:10:53;;;;;;;;;;;;;;;25.34;48.53;102295.13;5051866;28;19927;-68
2023/08/16 08:13:18;;;;;;;;;;;;;;;25.36;48.52;102296.59;5060351;28;19947;-68
2023/08/16 08:15:44;;;;;;;;;;;;;;;25.34;48.35;102300.47;5056239;28;19956;-68
2023/08/16 08:18:09;;;;;;;;;;;;;;;25.33;48.67;102301.47;5057665;28;19921;-68
2023/08/16 08:20:35;;;;;;;;;;;;;;;25.33;48.63;102309.47;5052867;28;19936;-68
2023/08/16 08:23:00;;;;;;;;;;;;;;;25.36;48.69;102309.09;5052653;28;19923;-68
2023/08/16 08:25:26;;;;;;;;;;;;;;;25.30;48.69;102316.78;5057003;28;19967;-68
2023/08/16 08:27:51;;;;;;;;;;;;;;;25.32;48.36;102308.66;5054666;28;20219;-69
2023/08/16 08:30:18;;;;;;;;;;;;;;;25.30;48.59;102300.78;5058878;28;19932;-69
2023/08/16 08:32:44;;;;;;;;;;;;;;;25.32;48.75;102313.16;5081744;28;20006;-69
2023/08/16 08:35:09;;;;;;;;;;;;;;;25.29;48.57;102311.66;5039248;28;19920;-68
2023/08/16 08:37:35;;;;;;;;;;;;;;;25.28;48.64;102310.81;5058823;28;19925;-68
2023/08/16 08:40:00;;;;;;;;;;;;;;;25.28;48.34;102315.31;5053213;28;20726;-69
2023/08/16 08:42:26;;;;;;;;;;;;;;;25.29;48.26;102319.66;5057159;28;19920;-68
2023/08/16 08:44:52;;;;;;;;;;;;;;;25.26;48.53;102315.50;5059886;28;19928;-68
2023/08/16 08:47:17;;;;;;;;;;;;;;;25.26;48.50;102320.84;5056926;28;20515;-69
2023/08/16 08:49:44;;;;;;;;;;;;;;;25.25;48.19;102327.19;5057338;28;20102;-68
2023/08/16 08:52:09;;;;;;;;;;;;;;;25.27;48.20;102322.50;5062814;28;19924;-68
2023/08/16 08:54:34;;;;;;;;;;;;;;;25.32;48.22;102323.81;5054322;28;19959;-69
2023/08/16 08:57:02;;;;;;;;;;;;;;;25.32;47.92;102324.66;5065187;28;20018;-69
2023/08/16 08:59:30;;;;;;;;;;;;;;;25.33;48.17;102328.97;5058546;28;20454;-69
2023/08/16 09:01:56;;;;;;;;;;;;;;;25.37;47.82;102326.75;5053874;28;19916;-69
2023/08/16 09:04:21;;;;;;;;;;;;;;;25.37;47.91;102330.25;5056575;28;20255;-68
2023/08/16 09:06:48;;;;;;;;;;;;;;;25.39;48.22;102327.41;5093520;27;20018;-69
2023/08/16 09:09:14;;;;;;;;;;;;;;;25.42;47.99;102325.19;5060002;28;19920;-70
2023/08/16 09:11:39;;;;;;;;;;;;;;;25.40;47.99;102331.72;5057287;28;19924;-69
2023/08/16 09:14:05;;;;;;;;;;;;;;;25.39;48.16;102325.56;5060437;28;19920;-69
2023/08/16 09:16:31;;;;;;;;;;;;;;;25.40;47.91;102329.06;5057185;28;19920;-69
2023/08/16 09:18:57;;;;;;;;;;;;;;;25.39;47.74;102324.75;5053703;28;19961;-68
2023/08/16 09:21:24;;;;;;;;;;;;;;;25.45;47.65;102321.34;5052731;28;19925;-69
2023/08/16 09:23:59;;;;;;;;;;;;;;;25.42;47.46;102321.72;5057479;28;19955;-69
2023/08/16 09:26:28;;;;;;;;;;;;;;;25.40;47.85;102326.41;5055740;28;19997;-69
2023/08/16 09:29:02;;;;;;;;;;;;;;;25.41;47.73;102331.53;5055809;28;19916;-68
2023/08/16 09:31:31;;;;;;;;;;;;;;;25.44;47.41;102325.84;5052288;28;19924;-69
2023/08/16 09:33:58;;;;;;;;;;;;;;;25.46;47.22;102323.00;5057514;28;20636;-68
2023/08/16 09:36:28;;;;;;;;;;;;;;;25.46;47.46;102326.50;5058588;28;20371;-69
2023/08/16 09:38:58;;;;;;;;;;;;;;;25.40;47.60;102318.41;5083872;28;19952;-68
2023/08/16 09:41:23;;;;;;;;;;;;;;;25.43;47.56;102324.19;5055745;28;20011;-68
2023/08/16 09:43:49;;;;;;;;;;;;;;;25.41;47.61;102334.22;5055112;28;20034;-69
2023/08/16 09:46:20;;;;;;;;;;;;;;;25.42;47.73;102325.19;5053880;28;19962;-69
2023/08/16 09:48:45;;;;;;;;;;;;;;;25.44;47.61;102325.00;5056580;28;19920;-69
2023/08/16 09:51:11;;;;;;;;;;;;;;;25.42;47.79;102330.53;5052062;28;19923;-68
2023/08/16 09:53:44;;;;;;;;;;;;;;;25.41;47.69;102322.72;5050973;28;19924;-68
2023/08/16 09:56:10;;;;;;;;;;;;;;;25.46;47.88;102325.66;5051902;28;19920;-69
2023/08/16 09:58:35;;;;;;;;;;;;;;;25.48;47.96;102328.97;5057307;28;19920;-69
2023/08/16 10:01:00;;;;;;;;;;;;;;;25.47;47.76;102319.31;5052934;28;20597;-69
2023/08/16 10:03:26;;;;;;;;;;;;;;;25.51;48.05;102317.97;5061215;28;19924;-69
2023/08/16 10:05:53;;;;;;;;;;;;;;;25.32;47.80;102297.97;5060461;28;20003;-68
2023/08/16 10:08:18;;;;;;;;;;;;;;;25.49;47.88;102323.44;5054273;28;19994;-69
2023/08/16 10:10:44;;;;;;;;;;;;;;;25.53;48.15;102319.44;5058766;28;20383;-68
2023/08/16 10:13:10;;;;;;;;;;;;;;;25.52;48.08;102320.44;5058878;28;19927;-69
2023/08/16 10:15:37;;;;;;;;;;;;;;;25.54;47.77;102318.41;5055096;28;19945;-69
2023/08/16 10:18:05;;;;;;;;;;;;;;;25.54;47.96;102315.75;5059346;28;20375;-69
2023/08/16 10:20:32;;;;;;;;;;;;;;;25.57;47.87;102319.91;5053329;28;19924;-69
2023/08/16 10:22:59;;;;;;;;;;;;;;;25.58;48.06;102314.38;5065583;28;19927;-69
2023/08/16 10:25:27;;;;;;;;;;;;;;;25.55;48.21;102308.59;5073535;28;19916;-69
2023/08/16 10:27:57;;;;;;;;;;;;;;;25.56;48.12;102312.91;5057885;28;19969;-69
2023/08/16 10:30:24;;;;;;;;;;;;;;;25.55;48.15;102300.59;5068524;28;20001;-69
2023/08/16 10:33:00;;;;;;;;;;;;;;;25.55;48.16;102308.59;5060582;28;20042;-69
2023/08/16 10:35:26;;;;;;;;;;;;;;;25.56;48.23;102299.56;5062968;28;19916;-68
2023/08/16 10:37:53;;;;;;;;;;;;;;;25.55;48.23;102298.75;5064597;28;20005;-68
2023/08/16 10:40:19;;;;;;;;;;;;;;;25.57;48.16;102303.88;5058587;28;19932;-69
2023/08/16 10:42:48;;;;;;;;;;;;;;;25.61;48.02;102295.34;5074620;28;19978;-69
2023/08/16 10:45:20;;;;;;;;;;;;;;;25.60;48.06;102290.19;5059069;28;19954;-69
2023/08/16 10:47:46;;;;;;;;;;;;;;;25.60;47.90;102303.53;5062181;28;20124;-68
2023/08/16 10:50:11;;;;;;;;;;;;;;;25.62;48.02;102298.81;5063531;28;20421;-69
2023/08/16 10:52:38;;;;;;;;;;;;;;;25.61;48.06;102298.00;5070325;28;20019;-69
2023/08/16 10:55:03;;;;;;;;;;;;;;;25.64;47.89;102295.97;5064014;28;19919;-68
2023/08/16 10:57:29;;;;;;;;;;;;;;;25.58;47.91;102297.53;5064879;28;20002;-68
2023/08/16 11:00:05;;;;;;;;;;;;;;;25.60;48.21;102298.19;5064346;28;20175;-69
2023/08/16 11:02:31;;;;;;;;;;;;;;;25.64;47.88;102303.97;5053290;28;19924;-69
2023/08/16 11:04:57;;;;;;;;;;;;;;;25.64;48.04;102299.47;5067958;28;19966;-69
2023/08/16 11:07:23;;;;;;;;;;;;;;;25.62;47.87;102309.50;5054945;28;20007;-69
2023/08/16 11:09:50;;;;;;;;;;;;;;;25.63;47.81;102308.47;5067654;28;20627;-68
2023/08/16 11:12:17;;;;;;;;;;;;;;;25.62;47.68;102317.50;5067908;28;19916;-68
2023/08/16 11:14:45;;;;;;;;;;;;;;;25.66;47.75;102310.78;5063855;28;19927;-68
2023/08/16 11:17:13;;;;;;;;;;;;;;;25.62;47.90;102309.50;5068750;28;19939;-68
2023/08/16 11:19:38;;;;;;;;;;;;;;;25.61;48.18;102310.50;5059922;28;19924;-68
2023/08/16 11:22:05;;;;;;;;;;;;;;;25.61;48.02;102315.84;5055138;28;20394;-69
2023/08/16 11:24:31;;;;;;;;;;;;;;;25.61;48.14;102306.00;5057124;28;19978;-69
2023/08/16 11:26:56;;;;;;;;;;;;;;;25.66;48.21;102309.94;5061746;28;19948;-68
2023/08/16 11:29:21;;;;;;;;;;;;;;;25.63;48.23;102311.16;5065000;28;20001;-68
2023/08/16 11:31:47;;;;;;;;;;;;;;;25.64;47.95;102309.31;5061720;28;19987;-69
2023/08/16 11:34:13;;;;;;;;;;;;;;;25.67;48.15;102308.94;5061451;28;19989;-69
2023/08/16 11:36:38;;;;;;;;;;;;;;;25.67;47.82;102308.94;5064279;28;19930;-69
2023/08/16 11:39:04;;;;;;;;;;;;;;;25.69;47.80;102310.47;5066112;28;19995;-67
2023/08/16 11:41:30;;;;;;;;;;;;;;;25.66;48.25;102307.28;5058870;28;20382;-67
2023/08/16 11:43:56;;;;;;;;;;;;;;;25.69;48.21;102314.97;5058916;28;19990;-67
2023/08/16 11:46:22;;;;;;;;;;;;;;;25.64;48.22;102311.97;5092912;27;19950;-67
2023/08/16 11:48:47;;;;;;;;;;;;;;;25.65;48.08;102310.97;5064892;28;19960;-68
2023/08/16 11:51:12;;;;;;;;;;;;;;;25.62;48.05;102309.50;5068598;28;19947;-67
2023/08/16 11:53:39;;;;;;;;;;;;;;;25.66;48.08;102309.94;5063302;28;20385;-67
2023/08/16 11:56:05;;;;;;;;;;;;;;;25.67;47.72;102309.78;5055725;28;19970;-67
2023/08/16 11:58:42;;;;;;;;;;;;;;;25.67;48.14;102309.78;5063081;28;19927;-67
2023/08/16 12:01:09;;;;;;;;;;;;;;;25.68;47.93;102322.16;5055366;28;19954;-67
2023/08/16 12:03:35;;;;;;;;;;;;;;;25.66;47.99;102315.28;5060980;28;19920;-67
2023/08/16 12:06:08;;;;;;;;;;;;;;;25.69;47.89;102314.97;5064151;28;20408;-67
2023/08/16 12:08:33;;;;;;;;;;;;;;;25.71;48.26;102319.13;5064572;28;19922;-67
2023/08/16 12:10:59;;;;;;;;;;;;;;;25.50;48.37;102287.81;5063597;28;19920;-67
2023/08/16 12:13:24;;;;;;;;;;;;;;;25.71;47.96;102310.28;5063021;28;19916;-68
2023/08/16 12:15:50;;;;;;;;;;;;;;;25.72;48.10;102306.59;5053544;28;19916;-67
2023/08/16 12:18:17;;;;;;;;;;;;;;;25.57;48.05;102287.88;5055971;28;20352;-67
2023/08/16 12:20:46;;;;;;;;;;;;;;;25.72;48.10;102310.09;5054576;28;19923;-67
2023/08/16 12:23:14;;;;;;;;;;;;;;;25.73;48.15;102303.75;5058795;28;19921;-67
2023/08/16 12:25:39;;;;;;;;;;;;;;;25.67;48.19;102304.44;5053045;28;19939;-67
2023/08/16 12:28:05;;;;;;;;;;;;;;;25.72;47.90;102302.09;5057021;28;19958;-67
2023/08/16 12:30:30;;;;;;;;;;;;;;;25.71;48.24;102296.94;5056015;28;20020;-67